sensor_id;sensor_type;location;lat;lon;timestamp;pressure;altitude;pressure_sealevel;temperature;humidity
56514;BME280;62152;52.078;8.414;2023-02-28T00:00:22;101610.56;;;16.05;54.99
56514;BME280;62152;52.078;8.414;2023-02-28T00:04:22;101612.50;;;16.04;55.14
56514;BME280;62152;52.078;8.414;2023-02-28T00:08:24;101612.50;;;16.04;55.11
56514;BME280;62152;52.078;8.414;2023-02-28T00:12:26;101607.84;;;16.05;55.08
56514;BME280;62152;52.078;8.414;2023-02-28T00:16:26;101605.09;;;16.05;55.24
56514;BME280;62152;52.078;8.414;2023-02-28T00:20:27;101594.16;;;16.05;55.02
56514;BME280;62152;52.078;8.414;2023-02-28T00:24:29;101605.09;;;16.05;55.36
56514;BME280;62152;52.078;8.414;2023-02-28T00:28:30;101602.69;;;16.03;54.91
56514;BME280;62152;52.078;8.414;2023-02-28T00:32:33;101597.22;;;16.03;54.96
56514;BME280;62152;52.078;8.414;2023-02-28T00:36:35;101594.47;;;16.03;55.07
56514;BME280;62152;52.078;8.414;2023-02-28T00:40:40;101598.81;;;16.04;55.37
56514;BME280;62152;52.078;8.414;2023-02-28T00:44:41;101598.00;;;16.04;55.15
56514;BME280;62152;52.078;8.414;2023-02-28T00:48:41;101595.59;;;16.02;55.35
56514;BME280;62152;52.078;8.414;2023-02-28T00:52:42;101607.84;;;16.05;55.04
56514;BME280;62152;52.078;8.414;2023-02-28T00:56:44;101607.03;;;16.04;55.15
56514;BME280;62152;52.078;8.414;2023-02-28T01:00:45;101609.78;;;16.04;55.25
56514;BME280;62152;52.078;8.414;2023-02-28T01:04:46;101609.78;;;16.04;54.98
56514;BME280;62152;52.078;8.414;2023-02-28T01:08:47;101608.97;;;16.04;54.82
56514;BME280;62152;52.078;8.414;2023-02-28T01:12:49;101609.78;;;16.04;55.41
56514;BME280;62152;52.078;8.414;2023-02-28T01:16:50;101617.97;;;16.04;55.03
56514;BME280;62152;52.078;8.414;2023-02-28T01:20:51;101616.38;;;16.03;55.36
56514;BME280;62152;52.078;8.414;2023-02-28T01:24:51;101610.09;;;16.03;55.49
56514;BME280;62152;52.078;8.414;2023-02-28T01:28:53;101608.16;;;16.03;55.17
56514;BME280;62152;52.078;8.414;2023-02-28T01:32:54;101617.69;;;16.06;55.21
56514;BME280;62152;52.078;8.414;2023-02-28T01:36:55;101603.50;;;16.04;55.19
56514;BME280;62152;52.078;8.414;2023-02-28T01:40:55;101602.69;;;16.03;55.55
56514;BME280;62152;52.078;8.414;2023-02-28T01:45:06;101605.09;;;16.05;55.37
56514;BME280;62152;52.078;8.414;2023-02-28T01:49:18;101602.69;;;16.03;55.52
56514;BME280;62152;52.078;8.414;2023-02-28T01:53:26;101602.69;;;16.03;55.35
56514;BME280;62152;52.078;8.414;2023-02-28T01:57:35;101602.69;;;16.03;55.18
56514;BME280;62152;52.078;8.414;2023-02-28T02:01:39;101602.69;;;16.03;55.41
56514;BME280;62152;52.078;8.414;2023-02-28T02:05:41;101603.00;;;16.02;55.23
56514;BME280;62152;52.078;8.414;2023-02-28T02:09:42;101609.78;;;16.04;55.64
56514;BME280;62152;52.078;8.414;2023-02-28T02:14:02;101608.16;;;16.03;55.70
56514;BME280;62152;52.078;8.414;2023-02-28T02:18:23;101603.50;;;16.04;55.32
56514;BME280;62152;52.078;8.414;2023-02-28T02:27:33;101603.81;;;16.02;55.72
56514;BME280;62152;52.078;8.414;2023-02-28T02:32:14;101606.56;;;16.02;55.68
56514;BME280;62152;52.078;8.414;2023-02-28T02:36:27;101592.88;;;16.02;55.27
56514;BME280;62152;52.078;8.414;2023-02-28T02:40:38;101591.75;;;16.03;55.24
56514;BME280;62152;52.078;8.414;2023-02-28T02:44:48;101595.59;;;16.02;55.55
56514;BME280;62152;52.078;8.414;2023-02-28T02:48:56;101595.59;;;16.02;55.61
56514;BME280;62152;52.078;8.414;2023-02-28T02:53:02;101601.06;;;16.02;55.73
56514;BME280;62152;52.078;8.414;2023-02-28T02:57:10;101608.16;;;16.03;56.01
56514;BME280;62152;52.078;8.414;2023-02-28T03:01:18;101613.63;;;16.03;55.35
56514;BME280;62152;52.078;8.414;2023-02-28T03:05:26;101612.03;;;16.02;55.63
56514;BME280;62152;52.078;8.414;2023-02-28T03:09:28;101612.81;;;16.03;55.83
56514;BME280;62152;52.078;8.414;2023-02-28T03:13:44;101604.94;;;16.01;55.50
56514;BME280;62152;52.078;8.414;2023-02-28T03:18:04;101605.75;;;16.02;55.58
56514;BME280;62152;52.078;8.414;2023-02-28T03:22:32;101596.72;;;16.01;55.90
56514;BME280;62152;52.078;8.414;2023-02-28T03:26:42;101600.59;;;16.00;55.71
56514;BME280;62152;52.078;8.414;2023-02-28T03:30:51;101600.28;;;16.02;55.77
56514;BME280;62152;52.078;8.414;2023-02-28T03:35:00;101591.25;;;16.01;55.48
56514;BME280;62152;52.078;8.414;2023-02-28T03:39:07;101595.13;;;16.00;55.60
56514;BME280;62152;52.078;8.414;2023-02-28T03:43:18;101596.72;;;16.01;55.62
56514;BME280;62152;52.078;8.414;2023-02-28T03:47:26;101594.00;;;16.01;55.59
56514;BME280;62152;52.078;8.414;2023-02-28T03:51:29;101601.06;;;16.02;55.39
56514;BME280;62152;52.078;8.414;2023-02-28T03:55:38;101592.38;;;16.00;55.71
56514;BME280;62152;52.078;8.414;2023-02-28T03:59:45;101600.59;;;16.00;55.58
56514;BME280;62152;52.078;8.414;2023-02-28T04:03:49;101598.66;;;16.01;55.92
56514;BME280;62152;52.078;8.414;2023-02-28T04:07:51;101600.59;;;16.00;55.79
56514;BME280;62152;52.078;8.414;2023-02-28T04:11:52;101604.13;;;16.01;55.58
56514;BME280;62152;52.078;8.414;2023-02-28T04:15:54;101600.59;;;16.00;55.77
56514;BME280;62152;52.078;8.414;2023-02-28T04:19:55;101607.69;;;16.01;55.78
56514;BME280;62152;52.078;8.414;2023-02-28T04:23:56;101603.34;;;16.00;55.79
56514;BME280;62152;52.078;8.414;2023-02-28T04:27:56;101607.19;;;15.99;55.67
56514;BME280;62152;52.078;8.414;2023-02-28T04:32:00;101604.47;;;15.99;55.53
56514;BME280;62152;52.078;8.414;2023-02-28T04:36:03;101603.63;;;15.99;55.66
56514;BME280;62152;52.078;8.414;2023-02-28T04:40:05;101600.88;;;15.99;56.02
56514;BME280;62152;52.078;8.414;2023-02-28T04:44:05;101600.09;;;15.98;55.61
56514;BME280;62152;52.078;8.414;2023-02-28T04:48:08;101607.19;;;15.99;55.60
56514;BME280;62152;52.078;8.414;2023-02-28T04:52:08;101605.56;;;15.98;55.51
56514;BME280;62152;52.078;8.414;2023-02-28T04:56:12;101600.88;;;15.99;55.95
56514;BME280;62152;52.078;8.414;2023-02-28T05:00:13;101597.34;;;15.98;55.79
56514;BME280;62152;52.078;8.414;2023-02-28T05:04:16;101607.50;;;15.98;55.59
56514;BME280;62152;52.078;8.414;2023-02-28T05:08:16;101602.88;;;16.07;54.66
56514;BME280;62152;52.078;8.414;2023-02-28T05:12:17;101604.47;;;16.08;52.96
56514;BME280;62152;52.078;8.414;2023-02-28T05:16:18;101616.25;;;16.17;51.84
56514;BME280;62152;52.078;8.414;2023-02-28T05:20:21;101609.03;;;16.38;51.34
56514;BME280;62152;52.078;8.414;2023-02-28T05:24:21;101614.03;;;16.45;51.69
56514;BME280;62152;52.078;8.414;2023-02-28T05:28:22;101621.72;;;16.26;52.94
56514;BME280;62152;52.078;8.414;2023-02-28T05:32:23;101624.13;;;16.10;53.21
56514;BME280;62152;52.078;8.414;2023-02-28T05:36:25;101626.19;;;16.04;53.64
56514;BME280;62152;52.078;8.414;2023-02-28T05:40:25;101624.09;;;16.01;53.64
56514;BME280;62152;52.078;8.414;2023-02-28T05:44:26;101624.41;;;16.00;54.12
56514;BME280;62152;52.078;8.414;2023-02-28T05:48:27;101625.84;;;15.97;54.30
56514;BME280;62152;52.078;8.414;2023-02-28T05:52:29;101621.97;;;15.98;54.17
56514;BME280;62152;52.078;8.414;2023-02-28T05:56:29;101625.84;;;15.97;54.18
56514;BME280;62152;52.078;8.414;2023-02-28T06:00:30;101627.44;;;15.98;54.01
56514;BME280;62152;52.078;8.414;2023-02-28T06:04:31;101629.72;;;15.96;54.75
56514;BME280;62152;52.078;8.414;2023-02-28T06:08:32;101617.63;;;15.97;54.16
56514;BME280;62152;52.078;8.414;2023-02-28T06:12:33;101634.06;;;15.97;54.47
56514;BME280;62152;52.078;8.414;2023-02-28T06:16:34;101628.09;;;15.95;54.35
56514;BME280;62152;52.078;8.414;2023-02-28T06:20:36;101632.44;;;15.96;54.50
56514;BME280;62152;52.078;8.414;2023-02-28T06:24:38;101625.38;;;15.95;54.56
56514;BME280;62152;52.078;8.414;2023-02-28T06:28:38;101629.72;;;15.96;54.82
56514;BME280;62152;52.078;8.414;2023-02-28T06:32:39;101626.97;;;15.96;54.33
56514;BME280;62152;52.078;8.414;2023-02-28T06:36:41;101629.72;;;15.96;54.89
56514;BME280;62152;52.078;8.414;2023-02-28T06:40:43;101628.91;;;15.96;54.51
56514;BME280;62152;52.078;8.414;2023-02-28T06:44:44;101635.19;;;15.96;54.75
56514;BME280;62152;52.078;8.414;2023-02-28T06:48:45;101647.75;;;15.97;54.58
56514;BME280;62152;52.078;8.414;2023-02-28T06:52:46;101641.47;;;15.97;54.95
56514;BME280;62152;52.078;8.414;2023-02-28T06:56:48;101644.19;;;15.97;54.77
56514;BME280;62152;52.078;8.414;2023-02-28T07:00:51;101646.13;;;15.96;54.89
56514;BME280;62152;52.078;8.414;2023-02-28T07:04:52;101641.47;;;15.97;54.80
56514;BME280;62152;52.078;8.414;2023-02-28T07:08:54;101639.53;;;15.97;54.96
56514;BME280;62152;52.078;8.414;2023-02-28T07:12:56;101653.72;;;15.99;54.71
56514;BME280;62152;52.078;8.414;2023-02-28T07:16:56;101657.25;;;16.00;55.19
56514;BME280;62152;52.078;8.414;2023-02-28T07:20:58;101661.09;;;15.99;54.80
56514;BME280;62152;52.078;8.414;2023-02-28T07:24:58;101672.03;;;15.99;54.54
56514;BME280;62152;52.078;8.414;2023-02-28T07:29:00;101673.69;;;16.00;54.80
56514;BME280;62152;52.078;8.414;2023-02-28T07:33:01;101666.56;;;15.99;55.00
56514;BME280;62152;52.078;8.414;2023-02-28T07:37:02;101681.09;;;15.99;54.90
56514;BME280;62152;52.078;8.414;2023-02-28T07:41:03;101676.41;;;16.00;55.22
56514;BME280;62152;52.078;8.414;2023-02-28T07:45:06;101681.88;;;16.00;54.78
56514;BME280;62152;52.078;8.414;2023-02-28T07:49:07;101690.09;;;16.00;54.82
56514;BME280;62152;52.078;8.414;2023-02-28T07:53:08;101681.88;;;16.00;55.02
56514;BME280;62152;52.078;8.414;2023-02-28T07:57:09;101683.50;;;16.01;54.73
56514;BME280;62152;52.078;8.414;2023-02-28T08:01:11;101692.50;;;16.01;54.62
56514;BME280;62152;52.078;8.414;2023-02-28T08:05:12;101687.38;;;16.00;54.78
56514;BME280;62152;52.078;8.414;2023-02-28T08:09:13;101696.84;;;16.02;54.83
56514;BME280;62152;52.078;8.414;2023-02-28T08:13:13;101694.13;;;16.02;55.36
56514;BME280;62152;52.078;8.414;2023-02-28T08:17:15;101699.91;;;16.01;54.84
56514;BME280;62152;52.078;8.414;2023-02-28T08:21:16;101694.44;;;16.01;54.95
56514;BME280;62152;52.078;8.414;2023-02-28T08:25:17;101688.66;;;16.02;55.20
56514;BME280;62152;52.078;8.414;2023-02-28T08:29:18;101683.19;;;16.02;55.27
56514;BME280;62152;52.078;8.414;2023-02-28T08:33:20;101688.66;;;16.02;55.25
56514;BME280;62152;52.078;8.414;2023-02-28T08:37:21;101681.25;;;16.03;55.18
56514;BME280;62152;52.078;8.414;2023-02-28T08:41:22;101689.47;;;16.03;55.25
56514;BME280;62152;52.078;8.414;2023-02-28T08:45:22;101690.25;;;16.03;54.96
56514;BME280;62152;52.078;8.414;2023-02-28T08:49:24;101689.47;;;16.03;54.78
56514;BME280;62152;52.078;8.414;2023-02-28T08:53:25;101692.19;;;16.03;54.98
56514;BME280;62152;52.078;8.414;2023-02-28T08:57:26;101684.78;;;16.03;55.03
56514;BME280;62152;52.078;8.414;2023-02-28T09:01:28;101691.06;;;16.04;55.17
56514;BME280;62152;52.078;8.414;2023-02-28T09:05:30;101700.09;;;16.04;55.19
56514;BME280;62152;52.078;8.414;2023-02-28T09:09:31;101683.66;;;16.04;55.35
56514;BME280;62152;52.078;8.414;2023-02-28T09:13:32;101689.13;;;16.04;55.34
56514;BME280;62152;52.078;8.414;2023-02-28T09:17:33;101686.41;;;16.04;55.18
56514;BME280;62152;52.078;8.414;2023-02-28T09:21:36;101693.81;;;16.04;54.84
56514;BME280;62152;52.078;8.414;2023-02-28T09:25:37;101678.50;;;16.03;54.99
56514;BME280;62152;52.078;8.414;2023-02-28T09:29:38;101680.94;;;16.04;55.35
56514;BME280;62152;52.078;8.414;2023-02-28T09:33:38;101689.94;;;16.05;55.26
56514;BME280;62152;52.078;8.414;2023-02-28T09:37:40;101688.00;;;16.05;55.56
56514;BME280;62152;52.078;8.414;2023-02-28T09:41:43;101682.53;;;16.05;54.98
56514;BME280;62152;52.078;8.414;2023-02-28T09:45:51;101690.75;;;16.05;55.05
56514;BME280;62152;52.078;8.414;2023-02-28T09:49:53;101689.94;;;16.05;55.32
56514;BME280;62152;52.078;8.414;2023-02-28T09:53:59;101692.69;;;16.05;55.13
56514;BME280;62152;52.078;8.414;2023-02-28T09:58:00;101699.78;;;16.06;55.09
56514;BME280;62152;52.078;8.414;2023-02-28T10:02:20;101694.31;;;16.06;55.06
56514;BME280;62152;52.078;8.414;2023-02-28T10:06:27;101705.56;;;16.04;55.21
56514;BME280;62152;52.078;8.414;2023-02-28T10:10:36;101700.59;;;16.06;55.07
56514;BME280;62152;52.078;8.414;2023-02-28T10:14:45;101684.47;;;16.05;55.04
56514;BME280;62152;52.078;8.414;2023-02-28T10:18:51;101684.47;;;16.05;54.94
56514;BME280;62152;52.078;8.414;2023-02-28T10:22:58;101682.84;;;16.04;55.49
56514;BME280;62152;52.078;8.414;2023-02-28T10:27:13;101676.25;;;16.05;55.33
56514;BME280;62152;52.078;8.414;2023-02-28T10:31:18;101679.78;;;16.05;55.15
56514;BME280;62152;52.078;8.414;2023-02-28T10:35:21;101674.31;;;16.05;54.97
56514;BME280;62152;52.078;8.414;2023-02-28T10:39:37;101674.31;;;16.05;55.38
56514;BME280;62152;52.078;8.414;2023-02-28T10:43:42;101675.97;;;16.06;55.39
56514;BME280;62152;52.078;8.414;2023-02-28T10:47:52;101668.56;;;16.07;55.13
56514;BME280;62152;52.078;8.414;2023-02-28T10:51:55;101673.72;;;16.08;55.21
56514;BME280;62152;52.078;8.414;2023-02-28T10:55:58;101670.97;;;16.08;55.34
56514;BME280;62152;52.078;8.414;2023-02-28T11:00:15;101672.56;;;16.09;55.51
56514;BME280;62152;52.078;8.414;2023-02-28T11:04:17;101669.84;;;16.09;55.17
56514;BME280;62152;52.078;8.414;2023-02-28T11:08:18;101667.91;;;16.10;55.12
56514;BME280;62152;52.078;8.414;2023-02-28T11:12:23;101667.91;;;16.10;55.30
56514;BME280;62152;52.078;8.414;2023-02-28T11:16:35;101665.16;;;16.10;55.12
56514;BME280;62152;52.078;8.414;2023-02-28T11:20:39;101658.09;;;16.09;55.20
56514;BME280;62152;52.078;8.414;2023-02-28T11:24:44;101659.69;;;16.10;55.43
56514;BME280;62152;52.078;8.414;2023-02-28T11:28:47;101660.50;;;16.10;55.24
56514;BME280;62152;52.078;8.414;2023-02-28T11:32:49;101661.63;;;16.09;55.13
56514;BME280;62152;52.078;8.414;2023-02-28T11:36:51;101658.56;;;16.11;55.36
56514;BME280;62152;52.078;8.414;2023-02-28T11:41:09;101655.03;;;16.10;55.22
56514;BME280;62152;52.078;8.414;2023-02-28T11:45:22;101644.88;;;16.11;55.59
56514;BME280;62152;52.078;8.414;2023-02-28T11:49:35;101655.50;;;16.12;55.60
56514;BME280;62152;52.078;8.414;2023-02-28T11:58:30;101635.25;;;16.13;55.31
56514;BME280;62152;52.078;8.414;2023-02-28T12:02:48;101635.25;;;16.13;55.57
56514;BME280;62152;52.078;8.414;2023-02-28T12:07:00;101631.72;;;16.13;55.51
56514;BME280;62152;52.078;8.414;2023-02-28T12:11:11;101628.97;;;16.13;55.31
56514;BME280;62152;52.078;8.414;2023-02-28T12:15:27;101618.03;;;16.13;55.17
56514;BME280;62152;52.078;8.414;2023-02-28T12:19:41;101610.91;;;16.12;55.56
56514;BME280;62152;52.078;8.414;2023-02-28T12:23:58;101607.88;;;16.13;55.29
56514;BME280;62152;52.078;8.414;2023-02-28T12:28:01;101604.63;;;16.11;55.40
56514;BME280;62152;52.078;8.414;2023-02-28T12:32:06;101596.13;;;16.13;55.42
56514;BME280;62152;52.078;8.414;2023-02-28T12:36:12;101605.94;;;16.14;55.33
56514;BME280;62152;52.078;8.414;2023-02-28T12:40:21;101595.00;;;16.14;55.37
56514;BME280;62152;52.078;8.414;2023-02-28T12:44:27;101585.19;;;16.13;55.18
56514;BME280;62152;52.078;8.414;2023-02-28T12:48:37;101587.59;;;16.14;55.20
56514;BME280;62152;52.078;8.414;2023-02-28T12:52:48;101577.78;;;16.13;55.28
56514;BME280;62152;52.078;8.414;2023-02-28T12:57:01;101566.03;;;16.13;55.66
56514;BME280;62152;52.078;8.414;2023-02-28T13:01:36;101566.81;;;16.13;55.47
56514;BME280;62152;52.078;8.414;2023-02-28T13:05:58;101561.50;;;16.17;55.36
56514;BME280;62152;52.078;8.414;2023-02-28T13:10:04;101561.50;;;16.17;55.25
56514;BME280;62152;52.078;8.414;2023-02-28T13:14:22;101562.63;;;16.16;55.28
56514;BME280;62152;52.078;8.414;2023-02-28T13:18:30;101555.22;;;16.17;55.40
56514;BME280;62152;52.078;8.414;2023-02-28T13:22:40;101560.69;;;16.17;55.72
56514;BME280;62152;52.078;8.414;2023-02-28T13:27:19;101547.00;;;16.17;55.61
56514;BME280;62152;52.078;8.414;2023-02-28T13:31:22;101553.28;;;16.17;55.54
56514;BME280;62152;52.078;8.414;2023-02-28T13:35:38;101549.41;;;16.18;55.42
56514;BME280;62152;52.078;8.414;2023-02-28T13:39:48;101551.69;;;16.16;55.72
56514;BME280;62152;52.078;8.414;2023-02-28T13:44:02;101557.63;;;16.18;55.66
56514;BME280;62152;52.078;8.414;2023-02-28T13:48:16;101544.75;;;16.19;55.58
56514;BME280;62152;52.078;8.414;2023-02-28T13:52:22;101554.88;;;16.18;55.42
56514;BME280;62152;52.078;8.414;2023-02-28T13:56:34;101540.41;;;16.18;55.46
56514;BME280;62152;52.078;8.414;2023-02-28T14:00:51;101540.91;;;16.20;56.04
56514;BME280;62152;52.078;8.414;2023-02-28T14:05:05;101542.00;;;16.19;55.66
56514;BME280;62152;52.078;8.414;2023-02-28T14:09:23;101545.56;;;16.19;55.96
56514;BME280;62152;52.078;8.414;2023-02-28T14:13:41;101535.72;;;16.18;55.77
56514;BME280;62152;52.078;8.414;2023-02-28T14:17:42;101533.78;;;16.19;55.71
56514;BME280;62152;52.078;8.414;2023-02-28T14:21:58;101531.38;;;16.17;55.93
56514;BME280;62152;52.078;8.414;2023-02-28T14:26:07;101526.72;;;16.18;55.77
56514;BME280;62152;52.078;8.414;2023-02-28T14:30:36;101522.03;;;16.18;56.02
56514;BME280;62152;52.078;8.414;2023-02-28T14:34:50;101531.06;;;16.19;56.06
56514;BME280;62152;52.078;8.414;2023-02-28T14:38:57;101512.69;;;16.19;56.40
56514;BME280;62152;52.078;8.414;2023-02-28T14:43:01;101521.25;;;16.18;55.99
56514;BME280;62152;52.078;8.414;2023-02-28T14:47:03;101510.81;;;16.20;55.77
56514;BME280;62152;52.078;8.414;2023-02-28T14:51:05;101519.00;;;16.20;56.23
56514;BME280;62152;52.078;8.414;2023-02-28T14:55:15;101513.53;;;16.20;56.08
56514;BME280;62152;52.078;8.414;2023-02-28T14:59:26;101515.13;;;16.21;55.99
56514;BME280;62152;52.078;8.414;2023-02-28T15:03:32;101512.69;;;16.19;55.93
56514;BME280;62152;52.078;8.414;2023-02-28T15:07:33;101511.59;;;16.20;55.28
56514;BME280;62152;52.078;8.414;2023-02-28T15:11:36;101521.41;;;16.21;55.40
56514;BME280;62152;52.078;8.414;2023-02-28T15:15:44;101522.69;;;16.24;55.70
56514;BME280;62152;52.078;8.414;2023-02-28T15:19:51;101525.75;;;16.22;55.22
56514;BME280;62152;52.078;8.414;2023-02-28T15:23:56;101524.47;;;16.20;55.51
56514;BME280;62152;52.078;8.414;2023-02-28T15:28:01;101525.28;;;16.20;55.08
56514;BME280;62152;52.078;8.414;2023-02-28T15:32:04;101530.44;;;16.22;55.17
56514;BME280;62152;52.078;8.414;2023-02-28T15:36:12;101523.34;;;16.21;55.59
56514;BME280;62152;52.078;8.414;2023-02-28T15:40:17;101526.09;;;16.21;55.23
56514;BME280;62152;52.078;8.414;2023-02-28T15:44:28;101526.09;;;16.21;55.05
56514;BME280;62152;52.078;8.414;2023-02-28T15:48:37;101533.16;;;16.22;54.98
56514;BME280;62152;52.078;8.414;2023-02-28T15:52:41;101532.03;;;16.23;55.42
56514;BME280;62152;52.078;8.414;2023-02-28T15:56:45;101534.78;;;16.23;55.10
56514;BME280;62152;52.078;8.414;2023-02-28T16:01:01;101530.91;;;16.24;55.08
56514;BME280;62152;52.078;8.414;2023-02-28T16:05:20;101538.00;;;16.25;55.07
56514;BME280;62152;52.078;8.414;2023-02-28T16:09:21;101534.78;;;16.23;55.00
56514;BME280;62152;52.078;8.414;2023-02-28T16:13:21;101522.03;;;16.18;55.06
56514;BME280;62152;52.078;8.414;2023-02-28T16:17:26;101535.72;;;16.18;55.44
56514;BME280;62152;52.078;8.414;2023-02-28T16:21:28;101530.91;;;16.15;54.92
56514;BME280;62152;52.078;8.414;2023-02-28T16:25:35;101533.66;;;16.15;55.42
56514;BME280;62152;52.078;8.414;2023-02-28T16:29:37;101534.44;;;16.16;55.25
56514;BME280;62152;52.078;8.414;2023-02-28T16:33:39;101534.44;;;16.16;55.23
56514;BME280;62152;52.078;8.414;2023-02-28T16:37:40;101535.59;;;16.14;55.57
56514;BME280;62152;52.078;8.414;2023-02-28T16:41:42;101543.00;;;16.14;55.06
56514;BME280;62152;52.078;8.414;2023-02-28T16:45:43;101538.94;;;16.11;55.00
56514;BME280;62152;52.078;8.414;2023-02-28T16:49:45;101541.69;;;16.11;55.00
56514;BME280;62152;52.078;8.414;2023-02-28T16:53:46;101540.06;;;16.10;54.81
56514;BME280;62152;52.078;8.414;2023-02-28T16:57:51;101541.19;;;16.09;55.30
56514;BME280;62152;52.078;8.414;2023-02-28T17:01:52;101543.94;;;16.09;55.38
56514;BME280;62152;52.078;8.414;2023-02-28T17:05:55;101540.41;;;16.09;55.46
56514;BME280;62152;52.078;8.414;2023-02-28T17:09:55;101543.94;;;16.09;55.02
56514;BME280;62152;52.078;8.414;2023-02-28T17:13:56;101543.13;;;16.09;55.26
56514;BME280;62152;52.078;8.414;2023-02-28T17:17:57;101545.88;;;16.09;55.04
56514;BME280;62152;52.078;8.414;2023-02-28T17:21:59;101549.75;;;16.08;54.94
56514;BME280;62152;52.078;8.414;2023-02-28T17:25:59;101550.88;;;16.07;55.15
56514;BME280;62152;52.078;8.414;2023-02-28T17:30:00;101554.72;;;16.06;55.45
56514;BME280;62152;52.078;8.414;2023-02-28T17:34:01;101558.28;;;16.06;55.12
56514;BME280;62152;52.078;8.414;2023-02-28T17:38:03;101557.78;;;16.04;55.24
56514;BME280;62152;52.078;8.414;2023-02-28T17:42:03;101557.19;;;16.33;53.55
56514;BME280;62152;52.078;8.414;2023-02-28T17:46:05;101562.34;;;16.61;53.40
56514;BME280;62152;52.078;8.414;2023-02-28T17:50:09;101572.63;;;16.47;53.72
56514;BME280;62152;52.078;8.414;2023-02-28T17:54:13;101568.75;;;16.30;54.21
56514;BME280;62152;52.078;8.414;2023-02-28T17:58:15;101574.56;;;16.20;54.42
56514;BME280;62152;52.078;8.414;2023-02-28T18:02:15;101576.63;;;16.14;54.66
56514;BME280;62152;52.078;8.414;2023-02-28T18:06:19;101580.00;;;16.11;54.82
56514;BME280;62152;52.078;8.414;2023-02-28T18:10:22;101583.06;;;16.10;54.95
56514;BME280;62152;52.078;8.414;2023-02-28T18:14:24;101598.69;;;16.09;55.02
56514;BME280;62152;52.078;8.414;2023-02-28T18:18:25;101595.13;;;16.09;55.17
56514;BME280;62152;52.078;8.414;2023-02-28T18:22:26;101594.66;;;16.07;55.19
56514;BME280;62152;52.078;8.414;2023-02-28T18:26:28;101597.53;;;16.10;55.12
56514;BME280;62152;52.078;8.414;2023-02-28T18:30:31;101599.81;;;16.08;55.19
56514;BME280;62152;52.078;8.414;2023-02-28T18:34:32;101589.47;;;16.05;55.16
56514;BME280;62152;52.078;8.414;2023-02-28T18:38:33;101584.84;;;16.06;55.19
56514;BME280;62152;52.078;8.414;2023-02-28T18:42:35;101575.78;;;16.05;55.44
56514;BME280;62152;52.078;8.414;2023-02-28T18:46:36;101571.16;;;16.06;55.48
56514;BME280;62152;52.078;8.414;2023-02-28T18:50:37;101570.31;;;16.05;55.34
56514;BME280;62152;52.078;8.414;2023-02-28T18:54:38;101578.53;;;16.05;55.14
56514;BME280;62152;52.078;8.414;2023-02-28T18:58:40;101579.66;;;16.04;55.47
56514;BME280;62152;52.078;8.414;2023-02-28T19:02:41;101581.28;;;16.05;55.83
56514;BME280;62152;52.078;8.414;2023-02-28T19:06:41;101581.59;;;16.04;55.67
56514;BME280;62152;52.078;8.414;2023-02-28T19:10:42;101580.78;;;16.03;55.78
56514;BME280;62152;52.078;8.414;2023-02-28T19:14:44;101575.31;;;16.03;55.34
56514;BME280;62152;52.078;8.414;2023-02-28T19:18:45;101578.06;;;16.03;55.59
56514;BME280;62152;52.078;8.414;2023-02-28T19:22:45;101579.66;;;16.04;55.42
56514;BME280;62152;52.078;8.414;2023-02-28T19:26:46;101575.00;;;16.05;55.71
56514;BME280;62152;52.078;8.414;2023-02-28T19:30:49;101583.53;;;16.03;55.60
56514;BME280;62152;52.078;8.414;2023-02-28T19:34:50;101580.78;;;16.03;55.76
56514;BME280;62152;52.078;8.414;2023-02-28T19:38:51;101586.25;;;16.03;55.89
56514;BME280;62152;52.078;8.414;2023-02-28T19:42:52;101584.34;;;16.04;55.71
56514;BME280;62152;52.078;8.414;2023-02-28T19:46:54;101594.47;;;16.03;55.38
56514;BME280;62152;52.078;8.414;2023-02-28T19:50:58;101600.75;;;16.04;56.21
56514;BME280;62152;52.078;8.414;2023-02-28T19:54:59;101590.94;;;16.03;56.08
56514;BME280;62152;52.078;8.414;2023-02-28T19:58:59;101591.75;;;16.03;56.01
56514;BME280;62152;52.078;8.414;2023-02-28T20:03:01;101583.53;;;16.03;55.95
56514;BME280;62152;52.078;8.414;2023-02-28T20:07:02;101591.75;;;16.03;55.89
56514;BME280;62152;52.078;8.414;2023-02-28T20:11:04;101585.13;;;16.04;55.89
56514;BME280;62152;52.078;8.414;2023-02-28T20:15:05;101575.31;;;16.03;55.65
56514;BME280;62152;52.078;8.414;2023-02-28T20:19:07;101575.63;;;16.02;56.05
56514;BME280;62152;52.078;8.414;2023-02-28T20:23:08;101586.25;;;16.03;55.96
56514;BME280;62152;52.078;8.414;2023-02-28T20:27:09;101574.50;;;16.03;55.76
56514;BME280;62152;52.078;8.414;2023-02-28T20:31:10;101585.13;;;16.04;56.06
56514;BME280;62152;52.078;8.414;2023-02-28T20:35:13;101580.78;;;16.03;55.84
56514;BME280;62152;52.078;8.414;2023-02-28T20:39:14;101593.66;;;16.03;55.73
56514;BME280;62152;52.078;8.414;2023-02-28T20:43:14;101602.69;;;16.03;56.05
56514;BME280;62152;52.078;8.414;2023-02-28T20:47:15;101602.69;;;16.03;56.08
56514;BME280;62152;52.078;8.414;2023-02-28T20:51:18;101612.03;;;16.02;55.87
56514;BME280;62152;52.078;8.414;2023-02-28T20:55:18;101612.81;;;16.03;56.24
56514;BME280;62152;52.078;8.414;2023-02-28T20:59:19;101609.28;;;16.02;56.04
56514;BME280;62152;52.078;8.414;2023-02-28T21:03:19;101610.41;;;16.01;55.97
56514;BME280;62152;52.078;8.414;2023-02-28T21:07:21;101618.63;;;16.01;56.32
56514;BME280;62152;52.078;8.414;2023-02-28T21:11:24;101620.22;;;16.02;56.14
56514;BME280;62152;52.078;8.414;2023-02-28T21:15:25;101621.38;;;16.01;55.97
56514;BME280;62152;52.078;8.414;2023-02-28T21:19:25;101620.22;;;16.02;56.22
56514;BME280;62152;52.078;8.414;2023-02-28T21:23:27;101611.22;;;16.02;55.85
56514;BME280;62152;52.078;8.414;2023-02-28T21:27:28;101617.81;;;16.01;55.96